createdAt,value
2019-02-23T12:39:56.437Z,8.90
2019-02-23T12:42:14.672Z,5.67
2019-02-23T12:52:10.527Z,5.67
2019-02-23T13:07:20.681Z,5.47
2019-02-23T13:17:05.425Z,8.57
2019-02-23T13:20:13.939Z,7.47
2019-02-23T13:46:31.076Z,7.07
2019-02-23T14:09:59.613Z,7.83
2019-02-23T14:30:57.213Z,11.03
2019-02-23T14:36:57.697Z,12.20
2019-02-23T14:40:20.869Z,11.23
2019-02-23T14:47:14.263Z,13.03
2019-02-23T14:50:49.015Z,11.90
2019-02-23T14:53:40.303Z,16.23
2019-02-23T14:57:16.549Z,12.80
2019-02-23T15:00:43.824Z,17.63
2019-02-23T15:04:21.471Z,15.27
2019-02-23T15:08:06.361Z,15.10
2019-02-23T15:11:15.616Z,14.60
2019-02-23T15:15:00.366Z,12.60
2019-02-23T15:21:08.780Z,16.57
2019-02-23T15:27:28.931Z,12.23
2019-02-23T15:34:17.677Z,18.83
2019-02-23T15:37:31.818Z,12.73
2019-02-23T15:40:58.023Z,15.47
2019-02-23T15:44:30.682Z,18.33
2019-02-23T15:48:07.282Z,17.23
2019-02-23T15:51:13.196Z,14.93
2019-02-23T15:57:12.807Z,14.07
2019-02-23T15:59:57.302Z,15.47
2019-02-23T16:02:59.828Z,16.10
2019-02-23T16:06:35.380Z,14.27
2019-02-23T16:09:19.403Z,13.50
2019-02-23T16:12:10.316Z,15.53
2019-02-23T16:15:12.331Z,15.33
2019-02-23T16:18:17.576Z,12.23
2019-02-23T16:24:20.968Z,14.60
2019-02-23T16:30:07.753Z,17.73
2019-02-23T16:32:50.626Z,14.27
2019-02-23T16:35:42.268Z,20.57
2019-02-23T16:38:18.959Z,18.90
2019-02-23T16:41:18.035Z,14.10
2019-02-23T16:43:57.990Z,13.23
2019-02-23T16:46:42.700Z,19.83
2019-02-23T16:49:38.700Z,12.80
2019-02-23T16:52:16.002Z,16.57
2019-02-23T16:55:10.989Z,20.67
2019-02-23T16:58:00.497Z,20.10
2019-02-23T17:00:48.865Z,20.80
2019-02-23T17:03:22.277Z,19.23
2019-02-23T17:06:04.632Z,20.13
2019-02-23T17:08:51.907Z,21.40
2019-02-23T17:11:54.580Z,20.17
2019-02-23T17:14:46.400Z,18.60
2019-02-23T17:17:54.920Z,20.63
2019-02-23T17:21:00.682Z,23.17
2019-02-23T17:24:13.719Z,20.73
2019-02-23T17:27:02.969Z,21.77
2019-02-23T17:29:42.273Z,26.10
2019-02-23T17:32:15.705Z,28.37
2019-02-23T17:35:00.585Z,23.87
2019-02-23T17:38:15.193Z,25.33
2019-02-23T17:40:46.483Z,24.23
2019-02-23T17:43:32.592Z,27.10
2019-02-23T17:46:19.129Z,28.87
2019-02-23T17:49:06.249Z,30.03
2019-02-23T17:52:05.206Z,26.77
2019-02-23T17:54:48.920Z,31.20
2019-02-23T17:57:37.064Z,26.70
2019-02-23T18:00:08.051Z,26.17
2019-02-23T18:03:14.116Z,27.33
2019-02-23T18:06:09.987Z,34.57
2019-02-23T18:08:47.926Z,32.33
2019-02-23T18:11:58.282Z,19.83
2019-02-23T18:15:15.253Z,26.93
2019-02-23T18:17:46.170Z,30.43
2019-02-23T18:20:43.078Z,30.37
2019-02-23T18:23:26.145Z,23.70
2019-02-23T18:26:05.378Z,24.17
2019-02-23T18:29:12.906Z,27.73
2019-02-23T18:32:02.955Z,27.50
2019-02-23T18:34:40.813Z,25.90
2019-02-23T18:37:28.339Z,22.63
2019-02-23T18:40:23.563Z,26.30
2019-02-23T18:42:59.790Z,25.17
2019-02-23T18:46:23.507Z,25.67
2019-02-23T18:49:09.255Z,24.37
2019-02-23T18:52:20.055Z,22.30
2019-02-23T18:54:31.143Z,23.93
2019-02-23T18:57:55.083Z,20.80
2019-02-23T19:00:53.340Z,29.57
2019-02-23T19:03:36.689Z,25.10
2019-02-23T19:06:15.828Z,28.37
2019-02-23T19:09:11.048Z,27.60
2019-02-23T19:12:10.804Z,28.60
2019-02-23T19:15:33.477Z,21.83
2019-02-23T19:25:23.029Z,22.43
2019-02-23T19:29:09.132Z,23.03
2019-02-23T19:32:40.956Z,23.43
2019-02-23T19:34:43.049Z,23.07
2019-02-23T19:37:21.471Z,21.30
2019-02-23T19:47:03.802Z,27.80
2019-02-23T19:51:03.209Z,23.97
2019-02-23T19:54:02.120Z,22.20
2019-02-23T20:16:28.913Z,27.33
2019-02-23T20:19:01.453Z,22.27
2019-02-23T20:22:05.217Z,25.03
2019-02-23T20:25:05.081Z,22.83
2019-02-23T20:28:14.107Z,25.90
2019-02-23T20:31:11.785Z,23.80
2019-02-23T20:34:10.730Z,24.43
2019-02-23T20:37:02.682Z,24.33
2019-02-23T20:40:18.135Z,25.83
2019-02-23T20:42:53.909Z,23.10
2019-02-23T20:45:29.692Z,25.70
2019-02-23T20:51:28.150Z,21.33
2019-02-23T20:54:21.325Z,26.57
2019-02-23T21:06:27.971Z,25.83
2019-02-23T21:09:10.602Z,23.40
2019-02-23T21:11:52.905Z,22.53
2019-02-23T21:14:24.154Z,20.87
2019-02-23T21:17:07.780Z,23.30
2019-02-23T21:19:43.130Z,20.20
2019-02-23T21:22:14.367Z,27.47
2019-02-23T21:24:51.877Z,21.33
2019-02-23T21:27:24.646Z,24.40
2019-02-23T21:30:00.297Z,23.93
2019-02-23T21:32:37.239Z,25.03
2019-02-23T21:35:22.030Z,24.60
2019-02-23T21:38:14.191Z,23.60
2019-02-23T21:40:49.240Z,24.40
2019-02-23T21:43:24.058Z,24.47
2019-02-23T21:45:58.283Z,21.63
2019-02-23T21:48:31.665Z,25.53
2019-02-23T21:51:06.475Z,20.80
2019-02-23T21:53:45.210Z,25.40
2019-02-23T21:56:19.162Z,24.67
2019-02-23T21:58:53.386Z,28.40
2019-02-23T22:01:24.996Z,23.93
2019-02-23T22:04:04.441Z,26.90
2019-02-23T22:06:36.790Z,25.10
2019-02-23T22:09:10.334Z,30.63
2019-02-23T22:11:48.279Z,28.20
2019-02-23T22:14:23.304Z,27.43
2019-02-23T22:16:56.972Z,32.57
2019-02-23T22:19:32.243Z,25.57
2019-02-23T22:22:16.956Z,24.70
2019-02-23T22:24:57.571Z,26.30
2019-02-23T22:27:41.200Z,27.93
2019-02-23T22:30:14.965Z,31.03
2019-02-23T22:32:59.197Z,26.07
2019-02-23T22:35:50.491Z,27.80
2019-02-23T22:38:30.790Z,28.57
2019-02-23T22:41:14.062Z,30.10
2019-02-23T22:43:54.225Z,30.37
2019-02-23T22:50:47.705Z,29.70
2019-02-23T22:52:31.642Z,32.13
2019-02-23T22:55:25.671Z,35.60
2019-02-23T22:57:49.949Z,24.77
2019-02-23T23:00:34.574Z,30.23
2019-02-23T23:03:11.046Z,28.20
2019-02-23T23:05:46.393Z,31.43
2019-02-23T23:08:21.753Z,29.87
2019-02-23T23:10:57.389Z,34.60
2019-02-23T23:13:32.831Z,29.70
2019-02-23T23:16:27.302Z,30.30
2019-02-23T23:19:02.404Z,27.33
2019-02-23T23:21:40.658Z,26.53
2019-02-23T23:27:18.593Z,27.23
2019-02-23T23:30:11.446Z,29.27
2019-02-23T23:33:56.400Z,29.17
2019-02-23T23:35:48.442Z,35.50
2019-02-23T23:38:45.338Z,34.40
2019-02-23T23:41:28.015Z,31.40
2019-02-23T23:50:57.473Z,33.80
2019-02-23T23:53:37.018Z,31.93
2019-02-23T23:56:19.549Z,35.67
2019-02-23T23:59:08.591Z,33.63
